Heinz Schepers — V2OM7 — position and weather

sailwx.info

Track history (hours):
 
Tides and Currents Weather Stations Pressure Air Temp Water Temp Dewpoint Dewpoint Depression Visibility Wind Speed Wind Dir Waves Ship Positions

Heinz Schepers

Last reported at 2014-Nov-27 19:18 UTC. Time now 2014-Nov-29 02:25 UTC.
Position N 37°41' E 026°32'.

Length 101 m; draft 5 m.

Type: Cargo ship. MMSI: 304596000.

Date/timePositionNaut miles runAvg speedWind from/ knotsBaromVisibWave heightAir tempDewpointWater temp
2014-Nov-27 19:18N 37°41' E 026°32'1814.9
2014-Nov-27 18:07N 37°26' E 026°45'32113.6
2014-Nov-26 18:31N 34°40' E 032°24'1212.3
2014-Nov-26 17:33N 34°36' E 032°37'1312.9
2014-Nov-26 16:33N 34°33' E 032°52'1010.2
2014-Nov-26 15:33N 34°37' E 033°03'3 2.5
2014-Nov-26 14:33N 34°39' E 033°01'0 0.0
2014-Nov-26 13:33N 34°39' E 033°01'0 0.0
2014-Nov-26 12:33N 34°39' E 033°01'0 0.0
2014-Nov-26 11:33N 34°39' E 033°01'0 0.0
2014-Nov-26 10:33N 34°39' E 033°01'0 0.0
2014-Nov-26 09:33N 34°39' E 033°01'0 0.0
2014-Nov-26 08:33N 34°39' E 033°01'0 0.0
2014-Nov-26 07:33N 34°39' E 033°01'0 0.0
2014-Nov-26 06:33N 34°39' E 033°01'0 0.0
2014-Nov-26 05:33N 34°39' E 033°01'0 0.0
2014-Nov-26 04:33N 34°39' E 033°01'0 0.0
2014-Nov-26 03:33N 34°39' E 033°01'0 0.0
2014-Nov-26 02:33N 34°39' E 033°01'0 0.0
2014-Nov-26 01:33N 34°39' E 033°01'0 0.0
2014-Nov-26 00:33N 34°39' E 033°01'0 0.0
2014-Nov-25 23:33N 34°39' E 033°01'0 0.0
2014-Nov-25 22:33N 34°39' E 033°01'0 0.0
2014-Nov-25 21:33N 34°39' E 033°01'0 0.0
2014-Nov-25 20:33N 34°39' E 033°01'0 0.0
2014-Nov-25 19:33N 34°39' E 033°01'0 0.0
2014-Nov-25 18:33N 34°39' E 033°01'0 0.0
2014-Nov-25 17:33N 34°39' E 033°01'0 0.0
2014-Nov-25 16:33N 34°39' E 033°01'0 0.0
2014-Nov-25 15:33N 34°39' E 033°01'0 0.5
2014-Nov-25 14:33N 34°39' E 033°02'8 7.6
2014-Nov-25 13:34N 34°32' E 032°59'1414.2
2014-Nov-25 12:34N 34°35' E 032°43'1414.3
2014-Nov-25 11:34N 34°39' E 032°26'32013.3
2014-Nov-24 11:29N 37°24' E 026°47'1414.4
2014-Nov-24 10:30N 37°36' E 026°36'1514.1
2014-Nov-24 09:27N 37°46' E 026°23'2713.8
2014-Nov-24 07:32N 37°60' E 025°54'  
2014-Nov-19 20:33N 37°51' E 026°13'1514.6
2014-Nov-19 19:32N 37°43' E 026°29'1814.8
2014-Nov-19 18:18N 37°28' E 026°43'1414.4
2014-Nov-19 17:21N 37°17' E 026°53'30914.2
2014-Nov-18 19:33N 34°40' E 032°22'1413.9
2014-Nov-18 18:34N 34°36' E 032°38'1414.0
2014-Nov-18 17:33N 34°32' E 032°55'10 9.7
2014-Nov-18 16:33N 34°39' E 033°03'2 1.8
2014-Nov-18 15:33N 34°39' E 033°01'0 0.0
2014-Nov-18 14:33N 34°39' E 033°01'0 0.0
2014-Nov-18 13:33N 34°39' E 033°01'0 0.0
2014-Nov-18 12:33N 34°39' E 033°01'0 0.0
2014-Nov-18 11:33N 34°39' E 033°01'0 0.0
2014-Nov-18 10:33N 34°39' E 033°01'0 0.0
2014-Nov-18 09:33N 34°39' E 033°01'0 0.0
2014-Nov-18 08:33N 34°39' E 033°01'0 0.0
2014-Nov-18 07:33N 34°39' E 033°01'0 0.0
2014-Nov-18 06:33N 34°39' E 033°01'0 0.0
2014-Nov-18 05:33N 34°39' E 033°01'0 0.0
2014-Nov-18 04:33N 34°39' E 033°01'2 1.6
2014-Nov-18 03:32N 34°40' E 033°03'0 0.0
2014-Nov-18 02:32N 34°40' E 033°03'0 0.0
2014-Nov-18 01:32N 34°40' E 033°03'0 0.0
2014-Nov-18 00:32N 34°40' E 033°03'0 0.0
2014-Nov-17 23:32N 34°40' E 033°03'0 0.0
2014-Nov-17 22:32N 34°40' E 033°03'0 0.0
2014-Nov-17 21:32N 34°40' E 033°03'7 6.8
2014-Nov-17 20:34N 34°33' E 033°04'1413.6
2014-Nov-17 19:33N 34°34' E 032°47'  
Track history (hours):
 
Tides and Currents Weather Stations Pressure Air Temp Water Temp Dewpoint Dewpoint Depression Visibility Wind Speed Wind Dir Waves Ship Positions

Heinz Schepers

Last reported at 2014-Nov-27 19:18 UTC. Time now 2014-Nov-29 02:25 UTC.
Position N 37°41' E 026°32'.

Length 101 m; draft 5 m.

Type: Cargo ship. MMSI: 304596000.

Date/timePositionNaut miles runAvg speedWind from/ knotsBaromVisibWave heightAir tempDewpointWater temp
2014-Nov-27 19:18N 37°41' E 026°32'1814.9
2014-Nov-27 18:07N 37°26' E 026°45'32113.6
2014-Nov-26 18:31N 34°40' E 032°24'1212.3
2014-Nov-26 17:33N 34°36' E 032°37'1312.9
2014-Nov-26 16:33N 34°33' E 032°52'1010.2
2014-Nov-26 15:33N 34°37' E 033°03'3 2.5
2014-Nov-26 14:33N 34°39' E 033°01'0 0.0
2014-Nov-26 13:33N 34°39' E 033°01'0 0.0
2014-Nov-26 12:33N 34°39' E 033°01'0 0.0
2014-Nov-26 11:33N 34°39' E 033°01'0 0.0
2014-Nov-26 10:33N 34°39' E 033°01'0 0.0
2014-Nov-26 09:33N 34°39' E 033°01'0 0.0
2014-Nov-26 08:33N 34°39' E 033°01'0 0.0
2014-Nov-26 07:33N 34°39' E 033°01'0 0.0
2014-Nov-26 06:33N 34°39' E 033°01'0 0.0
2014-Nov-26 05:33N 34°39' E 033°01'0 0.0
2014-Nov-26 04:33N 34°39' E 033°01'0 0.0
2014-Nov-26 03:33N 34°39' E 033°01'0 0.0
2014-Nov-26 02:33N 34°39' E 033°01'0 0.0
2014-Nov-26 01:33N 34°39' E 033°01'0 0.0
2014-Nov-26 00:33N 34°39' E 033°01'0 0.0
2014-Nov-25 23:33N 34°39' E 033°01'0 0.0
2014-Nov-25 22:33N 34°39' E 033°01'0 0.0
2014-Nov-25 21:33N 34°39' E 033°01'0 0.0
2014-Nov-25 20:33N 34°39' E 033°01'0 0.0
2014-Nov-25 19:33N 34°39' E 033°01'0 0.0
2014-Nov-25 18:33N 34°39' E 033°01'0 0.0
2014-Nov-25 17:33N 34°39' E 033°01'0 0.0
2014-Nov-25 16:33N 34°39' E 033°01'0 0.0
2014-Nov-25 15:33N 34°39' E 033°01'0 0.5
2014-Nov-25 14:33N 34°39' E 033°02'8 7.6
2014-Nov-25 13:34N 34°32' E 032°59'1414.2
2014-Nov-25 12:34N 34°35' E 032°43'1414.3
2014-Nov-25 11:34N 34°39' E 032°26'32013.3
2014-Nov-24 11:29N 37°24' E 026°47'1414.4
2014-Nov-24 10:30N 37°36' E 026°36'1514.1
2014-Nov-24 09:27N 37°46' E 026°23'2713.8
2014-Nov-24 07:32N 37°60' E 025°54'  
2014-Nov-19 20:33N 37°51' E 026°13'1514.6
2014-Nov-19 19:32N 37°43' E 026°29'1814.8
2014-Nov-19 18:18N 37°28' E 026°43'1414.4
2014-Nov-19 17:21N 37°17' E 026°53'30914.2
2014-Nov-18 19:33N 34°40' E 032°22'1413.9
2014-Nov-18 18:34N 34°36' E 032°38'1414.0
2014-Nov-18 17:33N 34°32' E 032°55'10 9.7
2014-Nov-18 16:33N 34°39' E 033°03'2 1.8
2014-Nov-18 15:33N 34°39' E 033°01'0 0.0
2014-Nov-18 14:33N 34°39' E 033°01'0 0.0
2014-Nov-18 13:33N 34°39' E 033°01'0 0.0
2014-Nov-18 12:33N 34°39' E 033°01'0 0.0
2014-Nov-18 11:33N 34°39' E 033°01'0 0.0
2014-Nov-18 10:33N 34°39' E 033°01'0 0.0
2014-Nov-18 09:33N 34°39' E 033°01'0 0.0
2014-Nov-18 08:33N 34°39' E 033°01'0 0.0
2014-Nov-18 07:33N 34°39' E 033°01'0 0.0
2014-Nov-18 06:33N 34°39' E 033°01'0 0.0
2014-Nov-18 05:33N 34°39' E 033°01'0 0.0
2014-Nov-18 04:33N 34°39' E 033°01'2 1.6
2014-Nov-18 03:32N 34°40' E 033°03'0 0.0
2014-Nov-18 02:32N 34°40' E 033°03'0 0.0
2014-Nov-18 01:32N 34°40' E 033°03'0 0.0
2014-Nov-18 00:32N 34°40' E 033°03'0 0.0
2014-Nov-17 23:32N 34°40' E 033°03'0 0.0
2014-Nov-17 22:32N 34°40' E 033°03'0 0.0
2014-Nov-17 21:32N 34°40' E 033°03'7 6.8
2014-Nov-17 20:34N 34°33' E 033°04'1413.6
2014-Nov-17 19:33N 34°34' E 032°47'  

Dump ship's entire track history